Time;durP1;ratioP1;P1;durP2;ratioP2;P2;SDS_P1;SDS_P2;PMS_P1;PMS_P2;Temp;Humidity;BMP_temperature;BMP_pressure;BME280_temperature;BME280_humidity;BME280_pressure;Samples;Min_cycle;Max_cycle;Signal;HPM_P1;HPM_P2
2023/09/06 00:00:29;;;;;;;;;;;25.10;1.00;;;;;;4992648;28;19926;-61
2023/09/06 00:02:57;;;;;;;;;;;25.10;1.00;;;;;;4976912;28;19926;-61
2023/09/06 00:05:24;;;;;;;;;;;25.10;1.00;;;;;;4991524;28;19934;-60
2023/09/06 00:07:51;;;;;;;;;;;25.10;1.00;;;;;;4992562;28;20016;-61
2023/09/06 00:10:18;;;;;;;;;;;25.10;1.00;;;;;;4992690;28;19936;-61
2023/09/06 00:12:45;;;;;;;;;;;25.10;1.00;;;;;;4992547;28;20417;-61
2023/09/06 00:15:12;;;;;;;;;;;25.10;1.00;;;;;;4991280;28;19933;-61
2023/09/06 00:17:41;;;;;;;;;;;25.10;1.00;;;;;;4992788;28;20033;-61
2023/09/06 00:20:21;;;;;;;;;;;25.10;1.00;;;;;;4989637;28;19976;-60
2023/09/06 00:23:01;;;;;;;;;;;25.00;1.00;;;;;;4992668;28;19953;-61
2023/09/06 00:25:31;;;;;;;;;;;25.10;1.00;;;;;;4991383;28;19973;-61
2023/09/06 00:27:59;;;;;;;;;;;25.10;1.00;;;;;;4992326;28;20181;-60
2023/09/06 00:30:26;;;;;;;;;;;25.10;1.00;;;;;;4992472;28;20278;-61
2023/09/06 00:32:55;;;;;;;;;;;25.00;1.00;;;;;;4983289;28;20406;-59
2023/09/06 00:35:25;;;;;;;;;;;25.00;1.00;;;;;;4991101;28;19937;-61
2023/09/06 00:37:52;;;;;;;;;;;25.00;1.00;;;;;;4979986;28;19988;-61
2023/09/06 00:40:21;;;;;;;;;;;25.00;1.00;;;;;;4978302;28;19965;-60
2023/09/06 00:42:49;;;;;;;;;;;25.00;1.00;;;;;;4992292;28;20016;-59
2023/09/06 00:45:21;;;;;;;;;;;25.00;1.00;;;;;;4984338;28;20404;-61
2023/09/06 00:47:52;;;;;;;;;;;25.00;1.00;;;;;;4977211;28;19926;-65
2023/09/06 00:50:20;;;;;;;;;;;25.00;1.00;;;;;;4992500;28;19925;-61
2023/09/06 00:52:47;;;;;;;;;;;25.00;1.00;;;;;;4991113;28;20408;-61
2023/09/06 00:55:14;;;;;;;;;;;25.00;1.00;;;;;;4990740;28;20301;-62
2023/09/06 01:00:36;;;;;;;;;;;25.00;1.00;;;;;;5051272;23;20308;-63
2023/09/06 01:03:04;;;;;;;;;;;25.00;1.00;;;;;;4976615;28;19949;-60
2023/09/06 01:05:34;;;;;;;;;;;25.00;1.00;;;;;;4974888;28;20358;-61
2023/09/06 01:08:03;;;;;;;;;;;25.00;1.00;;;;;;4970570;28;19926;-61
2023/09/06 01:10:33;;;;;;;;;;;25.00;1.00;;;;;;4974945;28;19962;-61
2023/09/06 01:13:02;;;;;;;;;;;25.00;1.00;;;;;;4976497;28;20008;-61
2023/09/06 01:15:29;;;;;;;;;;;25.00;1.00;;;;;;4974605;28;20020;-61
2023/09/06 01:17:58;;;;;;;;;;;25.00;1.00;;;;;;4974998;28;19981;-62
2023/09/06 01:20:33;;;;;;;;;;;24.90;1.00;;;;;;4967829;28;19981;-62
2023/09/06 01:23:06;;;;;;;;;;;25.00;1.00;;;;;;4958806;28;20016;-62
2023/09/06 01:25:33;;;;;;;;;;;24.90;1.00;;;;;;4958216;28;19926;-62
2023/09/06 01:28:00;;;;;;;;;;;24.90;1.00;;;;;;4976034;28;19926;-62
2023/09/06 01:33:16;;;;;;;;;;;25.00;1.00;;;;;;5147113;23;19968;-62
2023/09/06 01:35:43;;;;;;;;;;;24.90;1.00;;;;;;4969820;28;19926;-62
2023/09/06 01:38:11;;;;;;;;;;;24.90;1.00;;;;;;4958494;28;20394;-60
2023/09/06 01:40:38;;;;;;;;;;;24.90;1.00;;;;;;4958126;28;19933;-61
2023/09/06 01:43:05;;;;;;;;;;;24.90;1.00;;;;;;4958465;28;20301;-62
2023/09/06 01:45:32;;;;;;;;;;;24.90;1.00;;;;;;4958040;28;19933;-63
2023/09/06 01:47:59;;;;;;;;;;;24.90;1.00;;;;;;4975625;28;20382;-62
2023/09/06 01:50:25;;;;;;;;;;;24.90;1.00;;;;;;4975478;28;20402;-62
2023/09/06 01:52:52;;;;;;;;;;;24.90;1.00;;;;;;4958287;28;19949;-62
2023/09/06 01:55:21;;;;;;;;;;;24.90;1.00;;;;;;4957701;28;20390;-61
2023/09/06 01:57:47;;;;;;;;;;;24.90;1.00;;;;;;4975430;28;19965;-62
2023/09/06 02:05:49;;;;;;;;;;;24.90;1.00;;;;;;4988558;23;19981;-61
2023/09/06 02:08:16;;;;;;;;;;;24.90;1.00;;;;;;4957843;28;20025;-61
2023/09/06 02:10:43;;;;;;;;;;;24.90;1.00;;;;;;4975103;28;19932;-61
2023/09/06 02:13:10;;;;;;;;;;;24.90;1.00;;;;;;4974741;28;19926;-61
2023/09/06 02:15:37;;;;;;;;;;;24.90;1.00;;;;;;4957412;28;19972;-61
2023/09/06 02:18:04;;;;;;;;;;;24.90;1.00;;;;;;4953321;28;20357;-59
2023/09/06 02:20:31;;;;;;;;;;;24.90;1.00;;;;;;4973480;28;19977;-61
2023/09/06 02:22:58;;;;;;;;;;;24.90;1.00;;;;;;4973870;28;19961;-61
2023/09/06 02:25:29;;;;;;;;;;;24.90;1.00;;;;;;4974550;28;20338;-61
2023/09/06 02:27:56;;;;;;;;;;;24.90;1.00;;;;;;4974837;28;20508;-61
2023/09/06 02:30:23;;;;;;;;;;;24.80;1.00;;;;;;4989667;28;20412;-61
2023/09/06 02:32:51;;;;;;;;;;;24.90;1.00;;;;;;4974784;28;19926;-60
2023/09/06 02:35:19;;;;;;;;;;;24.80;1.00;;;;;;4973145;28;20340;-61
2023/09/06 02:37:46;;;;;;;;;;;24.90;1.00;;;;;;5147791;23;19933;-62
2023/09/06 02:40:13;;;;;;;;;;;24.80;1.00;;;;;;4977632;28;19926;-62
2023/09/06 02:42:41;;;;;;;;;;;24.80;1.00;;;;;;4995661;28;20200;-62
2023/09/06 02:45:11;;;;;;;;;;;24.80;1.00;;;;;;4977504;28;19937;-62
2023/09/06 02:47:48;;;;;;;;;;;24.80;1.00;;;;;;4977286;28;19940;-62
2023/09/06 02:50:23;;;;;;;;;;;24.80;1.00;;;;;;4994220;28;19932;-59
2023/09/06 02:52:52;;;;;;;;;;;24.80;1.00;;;;;;4976474;28;20031;-62
2023/09/06 02:55:20;;;;;;;;;;;24.80;1.00;;;;;;4976165;28;19925;-61
2023/09/06 02:57:49;;;;;;;;;;;24.80;1.00;;;;;;4976350;28;20390;-61
2023/09/06 03:02:46;;;;;;;;;;;24.80;1.00;;;;;;4993595;28;19933;-61
2023/09/06 03:05:18;;;;;;;;;;;24.80;1.00;;;;;;4976086;28;19932;-61
2023/09/06 03:07:48;;;;;;;;;;;24.80;1.00;;;;;;4960853;28;19925;-60
2023/09/06 03:10:19;;;;;;;;;;;24.80;1.00;;;;;;4976255;28;20389;-61
2023/09/06 03:12:47;;;;;;;;;;;24.80;1.00;;;;;;4975127;28;20354;-61
2023/09/06 03:15:15;;;;;;;;;;;24.80;1.00;;;;;;4993298;28;20440;-61
2023/09/06 03:17:46;;;;;;;;;;;24.80;1.00;;;;;;4975937;28;19975;-61
2023/09/06 03:20:22;;;;;;;;;;;24.80;1.00;;;;;;4976044;28;19933;-61
2023/09/06 03:22:50;;;;;;;;;;;24.80;1.00;;;;;;4975751;28;19980;-61
2023/09/06 03:25:20;;;;;;;;;;;24.80;1.00;;;;;;4975101;28;19980;-61
2023/09/06 03:27:47;;;;;;;;;;;24.70;1.00;;;;;;4993324;28;19926;-61
2023/09/06 03:30:15;;;;;;;;;;;24.70;1.00;;;;;;4975777;28;20309;-60
2023/09/06 03:32:48;;;;;;;;;;;24.80;1.00;;;;;;4968666;28;19926;-61
2023/09/06 03:35:16;;;;;;;;;;;24.80;1.00;;;;;;4975596;28;19933;-61
2023/09/06 03:37:43;;;;;;;;;;;24.80;1.00;;;;;;4967573;28;19967;-61
2023/09/06 03:40:25;;;;;;;;;;;24.80;1.00;;;;;;4975361;28;19932;-61
2023/09/06 03:42:53;;;;;;;;;;;24.80;1.00;;;;;;4975530;28;19932;-61
2023/09/06 03:45:24;;;;;;;;;;;24.70;1.00;;;;;;4975286;28;19933;-61
2023/09/06 03:47:51;;;;;;;;;;;24.70;1.00;;;;;;4993017;28;19930;-61
2023/09/06 03:50:20;;;;;;;;;;;24.70;1.00;;;;;;4975572;28;20444;-61
2023/09/06 03:52:47;;;;;;;;;;;24.70;1.00;;;;;;4967306;28;19987;-60
2023/09/06 03:55:16;;;;;;;;;;;24.70;1.00;;;;;;4971520;28;19926;-60
2023/09/06 03:57:43;;;;;;;;;;;24.70;1.00;;;;;;4991867;28;19925;-61
2023/09/06 04:03:03;;;;;;;;;;;24.70;1.00;;;;;;4975512;28;19953;-60
2023/09/06 04:05:33;;;;;;;;;;;24.70;1.00;;;;;;4975128;28;20020;-62
2023/09/06 04:10:50;;;;;;;;;;;24.70;1.00;;;;;;5062248;23;19955;-61
2023/09/06 04:13:17;;;;;;;;;;;24.70;1.00;;;;;;4966863;28;19959;-61
2023/09/06 04:15:45;;;;;;;;;;;24.70;1.00;;;;;;4961354;28;19961;-60
2023/09/06 04:18:12;;;;;;;;;;;24.70;1.00;;;;;;4955592;28;19930;-60
2023/09/06 04:20:46;;;;;;;;;;;24.60;1.00;;;;;;4954243;28;20404;-60
2023/09/06 04:23:16;;;;;;;;;;;24.60;1.00;;;;;;4963142;28;20013;-62
2023/09/06 04:25:48;;;;;;;;;;;24.60;1.00;;;;;;4956296;28;19926;-61
2023/09/06 04:28:20;;;;;;;;;;;24.60;1.00;;;;;;4951286;28;19933;-63
2023/09/06 04:30:51;;;;;;;;;;;24.60;1.00;;;;;;4972301;28;19933;-61
2023/09/06 04:33:21;;;;;;;;;;;24.60;1.00;;;;;;4955110;28;19926;-61
2023/09/06 04:35:54;;;;;;;;;;;24.60;1.00;;;;;;4956975;28;19926;-61
2023/09/06 04:38:23;;;;;;;;;;;24.60;1.00;;;;;;4978442;28;19969;-59
2023/09/06 04:43:42;;;;;;;;;;;24.50;1.00;;;;;;4973661;28;20169;-61
2023/09/06 04:46:09;;;;;;;;;;;24.50;1.00;;;;;;4972189;28;19926;-58
2023/09/06 04:48:42;;;;;;;;;;;24.50;1.00;;;;;;4938628;28;20346;-61
2023/09/06 04:51:09;;;;;;;;;;;24.50;1.00;;;;;;4940796;29;19933;-60
2023/09/06 04:53:36;;;;;;;;;;;24.50;1.00;;;;;;4940472;28;19926;-60
2023/09/06 04:56:03;;;;;;;;;;;24.50;1.00;;;;;;4947573;29;20416;-59
2023/09/06 04:58:41;;;;;;;;;;;24.50;1.00;;;;;;4938310;28;19927;-60
2023/09/06 05:01:07;;;;;;;;;;;24.50;1.00;;;;;;4943305;29;19974;-60
2023/09/06 05:03:35;;;;;;;;;;;24.50;1.00;;;;;;4935965;29;19934;-60
2023/09/06 05:06:03;;;;;;;;;;;24.50;1.00;;;;;;4936643;29;19934;-61
2023/09/06 05:08:30;;;;;;;;;;;24.50;1.00;;;;;;4936486;29;19927;-60
2023/09/06 05:11:00;;;;;;;;;;;24.50;1.00;;;;;;4948428;29;20013;-61
2023/09/06 05:13:29;;;;;;;;;;;24.50;1.00;;;;;;5155200;23;21017;-60
2023/09/06 05:16:01;;;;;;;;;;;24.50;1.00;;;;;;4947019;29;20307;-60
2023/09/06 05:18:31;;;;;;;;;;;24.50;1.00;;;;;;4939350;29;19926;-61
2023/09/06 05:21:02;;;;;;;;;;;24.50;1.00;;;;;;4932233;29;19933;-61
2023/09/06 05:23:30;;;;;;;;;;;24.50;1.00;;;;;;4939170;29;19927;-59
2023/09/06 05:25:57;;;;;;;;;;;24.50;1.00;;;;;;4923583;29;19926;-60
2023/09/06 05:28:29;;;;;;;;;;;24.50;1.00;;;;;;4939486;29;19953;-59
2023/09/06 05:31:01;;;;;;;;;;;24.50;1.00;;;;;;4939388;29;19926;-58
2023/09/06 05:33:30;;;;;;;;;;;24.50;1.00;;;;;;4939296;29;19926;-60
2023/09/06 05:35:57;;;;;;;;;;;24.50;1.00;;;;;;4939028;29;19927;-61
2023/09/06 05:38:24;;;;;;;;;;;24.50;1.00;;;;;;4939497;29;20193;-61
2023/09/06 05:40:53;;;;;;;;;;;24.50;1.00;;;;;;4939730;29;19926;-61
2023/09/06 05:46:25;;;;;;;;;;;24.40;1.00;;;;;;4969070;28;19930;-59
2023/09/06 05:49:04;;;;;;;;;;;24.50;1.00;;;;;;4975382;28;19958;-61
2023/09/06 05:51:35;;;;;;;;;;;24.40;1.00;;;;;;4974776;28;19936;-58
2023/09/06 05:54:03;;;;;;;;;;;24.40;1.00;;;;;;4958002;28;19972;-61
2023/09/06 05:56:32;;;;;;;;;;;24.40;1.00;;;;;;4974209;28;19980;-61
2023/09/06 05:58:59;;;;;;;;;;;24.40;1.00;;;;;;4975500;28;20354;-61
2023/09/06 06:01:26;;;;;;;;;;;24.40;1.00;;;;;;4958010;28;19927;-60
2023/09/06 06:03:53;;;;;;;;;;;24.40;1.00;;;;;;4957688;28;19926;-59
2023/09/06 06:06:21;;;;;;;;;;;24.40;1.00;;;;;;4974082;28;20350;-60
2023/09/06 06:08:49;;;;;;;;;;;24.40;1.00;;;;;;4973900;28;20017;-60
2023/09/06 06:11:16;;;;;;;;;;;24.40;1.00;;;;;;4975216;28;20268;-56
2023/09/06 06:13:43;;;;;;;;;;;24.40;1.00;;;;;;4975082;28;19926;-60
2023/09/06 06:16:19;;;;;;;;;;;24.40;1.00;;;;;;4993009;23;20034;-61
2023/09/06 06:18:47;;;;;;;;;;;24.40;1.00;;;;;;4955775;29;19930;-60
2023/09/06 06:21:14;;;;;;;;;;;24.40;1.00;;;;;;4955937;29;19927;-60
2023/09/06 06:23:46;;;;;;;;;;;24.40;1.00;;;;;;4938427;29;19926;-57
2023/09/06 06:26:15;;;;;;;;;;;24.40;1.00;;;;;;4955799;28;19926;-58
2023/09/06 06:28:42;;;;;;;;;;;24.40;1.00;;;;;;4955573;29;20303;-60
2023/09/06 06:31:09;;;;;;;;;;;24.40;1.00;;;;;;4955861;29;19968;-61
2023/09/06 06:33:38;;;;;;;;;;;24.40;1.00;;;;;;4955287;29;19970;-58
2023/09/06 06:36:05;;;;;;;;;;;24.40;1.00;;;;;;4955645;28;19926;-61
2023/09/06 06:38:32;;;;;;;;;;;24.50;1.00;;;;;;4955442;29;19969;-60
2023/09/06 06:40:59;;;;;;;;;;;24.40;1.00;;;;;;4955215;29;19966;-61
2023/09/06 06:43:27;;;;;;;;;;;24.40;1.00;;;;;;4955309;29;20021;-61
2023/09/06 06:45:54;;;;;;;;;;;24.40;1.00;;;;;;5108472;23;19926;-59
2023/09/06 06:48:21;;;;;;;;;;;24.50;1.00;;;;;;4993823;28;19929;-60
2023/09/06 06:50:49;;;;;;;;;;;24.40;1.00;;;;;;4994024;28;20008;-58
2023/09/06 06:53:16;;;;;;;;;;;24.40;1.00;;;;;;4993341;28;19929;-61
2023/09/06 06:55:42;;;;;;;;;;;24.40;1.00;;;;;;4990238;28;20020;-58
2023/09/06 06:58:09;;;;;;;;;;;24.50;1.00;;;;;;4993120;28;20424;-60
2023/09/06 07:00:36;;;;;;;;;;;24.50;1.00;;;;;;4993277;28;19988;-61
2023/09/06 07:03:06;;;;;;;;;;;24.40;1.00;;;;;;4993700;28;20297;-60
2023/09/06 07:05:33;;;;;;;;;;;24.50;1.00;;;;;;4993356;28;20336;-59
2023/09/06 07:08:02;;;;;;;;;;;24.40;1.00;;;;;;4993546;28;19987;-61
2023/09/06 07:10:29;;;;;;;;;;;24.50;1.00;;;;;;4993585;28;19933;-61
2023/09/06 07:12:57;;;;;;;;;;;24.50;1.00;;;;;;4993436;28;20025;-61
2023/09/06 07:18:12;;;;;;;;;;;24.50;1.00;;;;;;5073223;23;19934;-59
2023/09/06 07:20:39;;;;;;;;;;;24.50;1.00;;;;;;4973989;28;19933;-59
2023/09/06 07:23:06;;;;;;;;;;;24.50;1.00;;;;;;4973855;28;20050;-60
2023/09/06 07:25:33;;;;;;;;;;;24.50;1.00;;;;;;4973725;28;19926;-61
2023/09/06 07:28:00;;;;;;;;;;;24.50;1.00;;;;;;4973752;28;19930;-60
2023/09/06 07:30:26;;;;;;;;;;;24.50;1.00;;;;;;4974223;28;19926;-61
2023/09/06 07:32:53;;;;;;;;;;;24.50;1.00;;;;;;4973912;28;19930;-60
2023/09/06 07:35:20;;;;;;;;;;;24.50;1.00;;;;;;4973568;28;20004;-59
2023/09/06 07:37:47;;;;;;;;;;;24.50;1.00;;;;;;4973802;28;19988;-61
2023/09/06 07:40:14;;;;;;;;;;;24.50;1.00;;;;;;4973985;28;19926;-61
2023/09/06 07:42:41;;;;;;;;;;;24.50;1.00;;;;;;4973646;28;20394;-61
2023/09/06 07:45:08;;;;;;;;;;;24.50;1.00;;;;;;4973395;28;20017;-60
2023/09/06 07:47:36;;;;;;;;;;;24.50;1.00;;;;;;4973736;28;20341;-60
2023/09/06 07:50:05;;;;;;;;;;;24.50;1.00;;;;;;4970873;28;19926;-61
2023/09/06 07:52:33;;;;;;;;;;;24.50;1.00;;;;;;4968474;28;20279;-61
2023/09/06 07:54:59;;;;;;;;;;;24.50;1.00;;;;;;4973372;28;19926;-61
2023/09/06 07:57:26;;;;;;;;;;;24.50;1.00;;;;;;4973591;28;19926;-61
2023/09/06 07:59:53;;;;;;;;;;;24.50;1.00;;;;;;4973434;28;20390;-60
2023/09/06 08:02:19;;;;;;;;;;;24.50;1.00;;;;;;4956198;28;19933;-59
2023/09/06 08:04:46;;;;;;;;;;;24.50;1.00;;;;;;4973316;28;20406;-61
2023/09/06 08:07:14;;;;;;;;;;;24.50;1.00;;;;;;4973548;28;20028;-60
2023/09/06 08:09:41;;;;;;;;;;;24.50;1.00;;;;;;4973604;28;19930;-62
2023/09/06 08:12:07;;;;;;;;;;;24.50;1.00;;;;;;4977389;28;20761;-59
2023/09/06 08:14:34;;;;;;;;;;;24.50;1.00;;;;;;4977145;28;20378;-58
2023/09/06 08:17:01;;;;;;;;;;;24.50;1.00;;;;;;4977134;28;19930;-59
2023/09/06 08:19:28;;;;;;;;;;;24.60;1.00;;;;;;5021510;23;19926;-59
2023/09/06 08:21:55;;;;;;;;;;;24.50;1.00;;;;;;5016300;28;20389;-60
2023/09/06 08:24:21;;;;;;;;;;;24.60;1.00;;;;;;5014867;28;20412;-59
2023/09/06 08:26:48;;;;;;;;;;;24.60;1.00;;;;;;5016830;28;20278;-59
2023/09/06 08:29:15;;;;;;;;;;;24.60;1.00;;;;;;5008967;28;19957;-57
2023/09/06 08:31:42;;;;;;;;;;;24.60;1.00;;;;;;5017141;28;20020;-60
2023/09/06 08:34:10;;;;;;;;;;;24.60;1.00;;;;;;5016330;28;19933;-60
2023/09/06 08:36:36;;;;;;;;;;;24.60;1.00;;;;;;5018536;28;20340;-60
2023/09/06 08:39:05;;;;;;;;;;;24.60;1.00;;;;;;5017118;28;19935;-60
2023/09/06 08:41:32;;;;;;;;;;;24.60;1.00;;;;;;5018397;28;19932;-61
2023/09/06 08:44:00;;;;;;;;;;;24.60;1.00;;;;;;5018180;28;19929;-61
2023/09/06 08:46:28;;;;;;;;;;;24.60;1.00;;;;;;5019353;28;20392;-61
2023/09/06 08:48:55;;;;;;;;;;;24.70;1.00;;;;;;5017710;28;19929;-60
2023/09/06 08:51:23;;;;;;;;;;;24.60;1.00;;;;;;5103578;22;19948;-59
2023/09/06 08:53:52;;;;;;;;;;;24.70;1.00;;;;;;4978842;28;20350;-60
2023/09/06 08:56:19;;;;;;;;;;;24.70;1.00;;;;;;4978842;28;19936;-58
2023/09/06 08:58:46;;;;;;;;;;;24.70;1.00;;;;;;4979968;28;19933;-59
2023/09/06 09:01:13;;;;;;;;;;;24.70;1.00;;;;;;4978292;28;19956;-60
2023/09/06 09:03:40;;;;;;;;;;;24.70;1.00;;;;;;4978675;28;20020;-62
2023/09/06 09:06:09;;;;;;;;;;;24.70;1.00;;;;;;4979895;28;20017;-60
2023/09/06 09:08:36;;;;;;;;;;;24.80;1.00;;;;;;4979842;28;19933;-61
2023/09/06 09:11:13;;;;;;;;;;;24.80;1.00;;;;;;4979567;28;19934;-61
2023/09/06 09:13:40;;;;;;;;;;;24.80;1.00;;;;;;4980622;28;19926;-60
2023/09/06 09:16:08;;;;;;;;;;;24.80;1.00;;;;;;4979355;28;19927;-60
2023/09/06 09:18:38;;;;;;;;;;;24.80;1.00;;;;;;4978739;28;19949;-61
2023/09/06 09:21:30;;;;;;;;;;;24.80;1.00;;;;;;5565532;23;20002;31
2023/09/06 09:23:57;;;;;;;;;;;24.80;1.00;;;;;;4919712;29;19927;-61
2023/09/06 09:26:24;;;;;;;;;;;24.80;1.00;;;;;;4921098;29;19927;-60
2023/09/06 09:28:51;;;;;;;;;;;24.80;1.00;;;;;;4936916;29;19926;-61
2023/09/06 09:31:18;;;;;;;;;;;24.80;1.00;;;;;;4940020;29;19982;-61
2023/09/06 09:33:49;;;;;;;;;;;24.80;1.00;;;;;;4940537;29;19926;-58
2023/09/06 09:36:17;;;;;;;;;;;24.80;1.00;;;;;;4939754;29;19934;-61
2023/09/06 09:38:49;;;;;;;;;;;24.90;1.00;;;;;;4939977;29;20363;-60
2023/09/06 09:41:16;;;;;;;;;;;24.90;1.00;;;;;;4937256;29;20021;-62
2023/09/06 09:43:43;;;;;;;;;;;24.90;1.00;;;;;;4937087;29;19927;-61
2023/09/06 09:46:10;;;;;;;;;;;24.90;1.00;;;;;;4927413;29;19927;-61
2023/09/06 09:48:39;;;;;;;;;;;24.90;1.00;;;;;;4931298;29;19926;-61
2023/09/06 09:51:07;;;;;;;;;;;24.90;1.00;;;;;;4937028;29;20365;-61
2023/09/06 09:53:35;;;;;;;;;;;24.90;1.00;;;;;;5324176;23;20715;-59
2023/09/06 09:56:06;;;;;;;;;;;24.90;1.00;;;;;;4975689;28;19949;-61
2023/09/06 09:58:34;;;;;;;;;;;24.90;1.00;;;;;;4975609;28;20008;-60
2023/09/06 10:01:01;;;;;;;;;;;24.90;1.00;;;;;;4975210;28;20456;-60
2023/09/06 10:03:28;;;;;;;;;;;24.90;1.00;;;;;;4975489;28;19934;-61
2023/09/06 10:05:58;;;;;;;;;;;24.90;1.00;;;;;;4975447;28;19926;-60
2023/09/06 10:08:26;;;;;;;;;;;25.00;1.00;;;;;;4975311;28;19977;-61
2023/09/06 10:10:53;;;;;;;;;;;24.90;1.00;;;;;;4974142;28;20104;-60
2023/09/06 10:13:26;;;;;;;;;;;25.00;1.00;;;;;;4975053;28;19934;-61
2023/09/06 10:15:54;;;;;;;;;;;25.00;1.00;;;;;;4975184;28;19933;-61
2023/09/06 10:18:21;;;;;;;;;;;25.00;1.00;;;;;;4973922;28;19934;-60
2023/09/06 10:20:48;;;;;;;;;;;24.90;1.00;;;;;;4975129;28;20360;-61
2023/09/06 10:23:17;;;;;;;;;;;25.00;1.00;;;;;;4974774;28;19984;-60
2023/09/06 10:25:51;;;;;;;;;;;25.00;1.00;;;;;;5079817;23;21233;-59
2023/09/06 10:28:24;;;;;;;;;;;25.00;1.00;;;;;;4973784;28;19926;-61
2023/09/06 10:31:07;;;;;;;;;;;25.00;1.00;;;;;;4975356;28;20303;-60
2023/09/06 10:33:38;;;;;;;;;;;25.00;1.00;;;;;;4974574;28;19977;-61
2023/09/06 10:36:06;;;;;;;;;;;25.00;1.00;;;;;;4956493;28;19930;-61
2023/09/06 10:38:35;;;;;;;;;;;25.00;1.00;;;;;;4955538;29;19926;-58
2023/09/06 10:41:02;;;;;;;;;;;25.00;1.00;;;;;;4955542;29;19926;-60
2023/09/06 10:43:41;;;;;;;;;;;25.00;1.00;;;;;;4955359;29;19934;-61
2023/09/06 10:46:08;;;;;;;;;;;25.00;1.00;;;;;;4955512;28;19990;-60
2023/09/06 10:48:35;;;;;;;;;;;25.00;1.00;;;;;;4955297;29;19934;-60
2023/09/06 10:51:06;;;;;;;;;;;25.00;1.00;;;;;;4955118;29;20346;-59
2023/09/06 10:53:36;;;;;;;;;;;25.00;1.00;;;;;;4955104;29;20013;-61
2023/09/06 10:56:03;;;;;;;;;;;25.00;1.00;;;;;;4955019;28;20454;-61
2023/09/06 10:58:32;;;;;;;;;;;25.00;1.00;;;;;;4947337;29;19998;-61
2023/09/06 11:01:12;;;;;;;;;;;25.00;1.00;;;;;;4955259;29;19940;-60
2023/09/06 11:03:41;;;;;;;;;;;25.00;1.00;;;;;;4942069;29;19927;-61
2023/09/06 11:06:09;;;;;;;;;;;25.10;1.00;;;;;;4952656;28;20306;-62
2023/09/06 11:08:38;;;;;;;;;;;25.10;1.00;;;;;;4954889;29;19969;-60
2023/09/06 11:11:07;;;;;;;;;;;25.10;1.00;;;;;;4954808;29;19927;-61
2023/09/06 11:13:35;;;;;;;;;;;25.10;1.00;;;;;;4942566;29;20318;-61
2023/09/06 11:16:03;;;;;;;;;;;25.00;1.00;;;;;;4943252;29;19926;-61
2023/09/06 11:18:32;;;;;;;;;;;25.00;1.00;;;;;;4954801;29;19930;-61
2023/09/06 11:20:59;;;;;;;;;;;25.10;1.00;;;;;;4954656;29;19926;-61
2023/09/06 11:23:26;;;;;;;;;;;25.10;1.00;;;;;;4954437;29;20412;-61
2023/09/06 11:25:56;;;;;;;;;;;25.10;1.00;;;;;;4954410;28;19973;-60
2023/09/06 11:28:23;;;;;;;;;;;25.00;1.00;;;;;;5032232;23;19957;-62
2023/09/06 11:30:51;;;;;;;;;;;25.10;1.00;;;;;;4993283;28;19932;-59
2023/09/06 11:33:18;;;;;;;;;;;25.10;1.00;;;;;;4993145;28;19930;-58
2023/09/06 11:35:55;;;;;;;;;;;25.10;1.00;;;;;;4985300;28;19947;-60
2023/09/06 11:38:28;;;;;;;;;;;25.10;1.00;;;;;;4973871;28;19926;-60
2023/09/06 11:40:57;;;;;;;;;;;25.10;1.00;;;;;;4973847;28;19933;-60
2023/09/06 11:43:26;;;;;;;;;;;25.10;1.00;;;;;;4973429;28;19992;-60
2023/09/06 11:45:56;;;;;;;;;;;25.10;1.00;;;;;;4966759;28;19926;-61
2023/09/06 11:48:27;;;;;;;;;;;25.10;1.00;;;;;;4973369;28;20386;-60
2023/09/06 11:51:03;;;;;;;;;;;25.10;1.00;;;;;;4974916;28;20025;-62
2023/09/06 11:53:31;;;;;;;;;;;25.10;1.00;;;;;;4964373;28;19997;-62
2023/09/06 11:56:05;;;;;;;;;;;25.10;1.00;;;;;;4969852;28;19953;-61
2023/09/06 11:58:32;;;;;;;;;;;25.10;1.00;;;;;;4973950;28;19926;-63
2023/09/06 12:01:01;;;;;;;;;;;25.10;1.00;;;;;;4973486;28;19926;-62
2023/09/06 12:03:30;;;;;;;;;;;25.10;1.00;;;;;;4973008;28;19961;-61
2023/09/06 12:06:00;;;;;;;;;;;25.10;1.00;;;;;;4973367;28;19929;-61
2023/09/06 12:08:29;;;;;;;;;;;25.10;1.00;;;;;;4973482;28;19954;-60
2023/09/06 12:11:06;;;;;;;;;;;25.10;1.00;;;;;;4973320;28;19930;-61
2023/09/06 12:13:34;;;;;;;;;;;25.10;1.00;;;;;;4974567;28;20123;-61
2023/09/06 12:16:02;;;;;;;;;;;25.10;1.00;;;;;;4974900;28;19926;-61
2023/09/06 12:18:29;;;;;;;;;;;25.10;1.00;;;;;;4974672;28;19933;-61
2023/09/06 12:20:58;;;;;;;;;;;25.10;1.00;;;;;;4974417;28;19961;-61
2023/09/06 12:23:28;;;;;;;;;;;25.10;1.00;;;;;;4974144;28;19972;-61
2023/09/06 12:25:56;;;;;;;;;;;25.10;1.00;;;;;;4972906;28;19926;-61
2023/09/06 12:31:13;;;;;;;;;;;25.10;1.00;;;;;;5001329;23;19932;-62
2023/09/06 12:33:45;;;;;;;;;;;25.10;1.00;;;;;;4972631;28;19981;-61
2023/09/06 12:36:13;;;;;;;;;;;25.10;1.00;;;;;;4972936;28;20563;-61
2023/09/06 12:38:40;;;;;;;;;;;25.10;1.00;;;;;;4973180;28;19969;-61
2023/09/06 12:41:07;;;;;;;;;;;25.10;1.00;;;;;;4971829;28;19945;-62
2023/09/06 12:43:37;;;;;;;;;;;25.10;1.00;;;;;;4972755;28;19997;-62
2023/09/06 12:46:13;;;;;;;;;;;25.10;1.00;;;;;;4973133;28;19933;-60
2023/09/06 12:48:42;;;;;;;;;;;25.10;1.00;;;;;;4972911;28;19930;-61
2023/09/06 12:51:09;;;;;;;;;;;25.10;1.00;;;;;;4972984;28;19926;-61
2023/09/06 12:53:36;;;;;;;;;;;25.10;1.00;;;;;;4972785;28;19969;-62
2023/09/06 12:56:03;;;;;;;;;;;25.10;1.00;;;;;;4973741;28;20301;-62
2023/09/06 12:58:31;;;;;;;;;;;25.10;1.00;;;;;;4976471;28;19981;-60
2023/09/06 13:03:35;;;;;;;;;;;25.10;1.00;;;;;;4953893;28;19950;-61
2023/09/06 13:06:03;;;;;;;;;;;25.10;1.00;;;;;;4957075;29;20029;-60
2023/09/06 13:08:33;;;;;;;;;;;25.10;1.00;;;;;;4956998;28;19934;-61
2023/09/06 13:11:00;;;;;;;;;;;25.10;1.00;;;;;;4957058;28;20429;-61
2023/09/06 13:13:27;;;;;;;;;;;25.10;1.00;;;;;;4956926;29;20021;-62
2023/09/06 13:15:54;;;;;;;;;;;25.10;1.00;;;;;;4956838;29;19973;-61
2023/09/06 13:18:20;;;;;;;;;;;25.10;1.00;;;;;;4956865;29;19981;-60
2023/09/06 13:20:49;;;;;;;;;;;25.10;1.00;;;;;;4956961;28;20465;-61
2023/09/06 13:23:16;;;;;;;;;;;25.10;1.00;;;;;;4956686;28;19926;-60
2023/09/06 13:25:42;;;;;;;;;;;25.10;1.00;;;;;;4956632;29;20280;-60
2023/09/06 13:28:09;;;;;;;;;;;25.10;1.00;;;;;;4957046;29;20334;-61
2023/09/06 13:30:37;;;;;;;;;;;25.10;1.00;;;;;;4956699;29;20415;-61
2023/09/06 13:38:57;;;;;;;;;;;25.10;1.00;;;;;;5949292;23;20042;-58
2023/09/06 13:41:24;;;;;;;;;;;25.10;1.00;;;;;;4995312;28;20313;-60
2023/09/06 13:43:51;;;;;;;;;;;25.10;1.00;;;;;;4994972;28;20346;-60
2023/09/06 13:46:18;;;;;;;;;;;25.10;1.00;;;;;;4995186;28;19926;-61
2023/09/06 13:48:44;;;;;;;;;;;25.10;1.00;;;;;;4993351;28;19929;-61
2023/09/06 13:51:11;;;;;;;;;;;25.10;1.00;;;;;;4995106;28;19969;-61
2023/09/06 13:53:38;;;;;;;;;;;25.10;1.00;;;;;;4994597;28;19929;-61
2023/09/06 13:56:04;;;;;;;;;;;25.10;1.00;;;;;;4994975;28;20039;-63
2023/09/06 13:58:34;;;;;;;;;;;25.10;1.00;;;;;;4993662;28;20017;-61
2023/09/06 14:01:01;;;;;;;;;;;25.20;1.00;;;;;;4994895;28;19925;-62
2023/09/06 14:03:27;;;;;;;;;;;25.20;1.00;;;;;;4994759;28;20305;-61
2023/09/06 14:05:55;;;;;;;;;;;25.10;1.00;;;;;;4994531;28;20000;-62
2023/09/06 14:08:22;;;;;;;;;;;25.20;1.00;;;;;;4994037;28;20289;-62
2023/09/06 14:13:42;;;;;;;;;;;25.20;1.00;;;;;;4973066;28;19926;-61
2023/09/06 14:16:09;;;;;;;;;;;25.20;1.00;;;;;;4975002;28;20021;-62
2023/09/06 14:18:36;;;;;;;;;;;25.10;1.00;;;;;;4974874;28;19926;-62
2023/09/06 14:21:03;;;;;;;;;;;25.20;1.00;;;;;;4974904;28;19937;-62
2023/09/06 14:23:30;;;;;;;;;;;25.10;1.00;;;;;;4967920;28;19938;-61
2023/09/06 14:25:57;;;;;;;;;;;25.20;1.00;;;;;;4974766;28;19959;-62
2023/09/06 14:28:24;;;;;;;;;;;25.20;1.00;;;;;;4970866;28;19926;-62
2023/09/06 14:30:51;;;;;;;;;;;25.20;1.00;;;;;;4971260;28;19933;-63
2023/09/06 14:33:18;;;;;;;;;;;25.20;1.00;;;;;;4972904;28;19949;-62
2023/09/06 14:35:45;;;;;;;;;;;25.20;1.00;;;;;;4967547;28;20037;-62
2023/09/06 14:38:14;;;;;;;;;;;25.10;1.00;;;;;;4970975;28;19927;-62
2023/09/06 14:40:42;;;;;;;;;;;25.10;1.00;;;;;;4972871;28;19932;-62
2023/09/06 14:46:02;;;;;;;;;;;25.00;1.00;;;;;;4967830;28;19949;-61
2023/09/06 14:48:29;;;;;;;;;;;25.00;1.00;;;;;;4973831;28;19948;-61
2023/09/06 14:50:57;;;;;;;;;;;24.90;1.00;;;;;;4972911;28;19930;-60
2023/09/06 14:53:24;;;;;;;;;;;25.00;1.00;;;;;;4978356;28;19953;-61
2023/09/06 14:55:51;;;;;;;;;;;25.00;1.00;;;;;;4973942;28;20386;-61
2023/09/06 14:58:18;;;;;;;;;;;25.00;1.00;;;;;;4974195;28;19976;-61
2023/09/06 15:00:44;;;;;;;;;;;25.00;1.00;;;;;;4974110;28;19926;-61
2023/09/06 15:03:12;;;;;;;;;;;25.00;1.00;;;;;;4969698;28;20170;-61
2023/09/06 15:05:42;;;;;;;;;;;25.00;1.00;;;;;;4975239;28;19997;-61
2023/09/06 15:08:09;;;;;;;;;;;25.00;1.00;;;;;;4979415;28;19926;-63
2023/09/06 15:10:36;;;;;;;;;;;24.90;1.00;;;;;;4974564;28;20082;-61
2023/09/06 15:13:04;;;;;;;;;;;25.00;1.00;;;;;;4973758;28;19941;-61
2023/09/06 15:15:31;;;;;;;;;;;25.00;1.00;;;;;;5002320;22;20025;-62
2023/09/06 15:17:58;;;;;;;;;;;25.00;1.00;;;;;;4993528;28;20394;-62
2023/09/06 15:20:26;;;;;;;;;;;25.00;1.00;;;;;;4989206;28;20378;-62
2023/09/06 15:22:53;;;;;;;;;;;25.00;1.00;;;;;;4993321;28;20274;-62